Time;durP1;ratioP1;P1;durP2;ratioP2;P2;SDS_P1;SDS_P2;PMS_P1;PMS_P2;Temp;Humidity;BMP_temperature;BMP_pressure;BME280_temperature;BME280_humidity;BME280_pressure;Samples;Min_cycle;Max_cycle;Signal;HPM_P1;HPM_P2
2021/04/28 00:00:36;;;;;;;4.82;1.75;;;6.70;99.90;;;;;;5128688;28;20050;-66
2021/04/28 00:03:15;;;;;;;3.55;1.70;;;6.90;99.90;;;;;;5119161;28;20058;-66
2021/04/28 00:17:21;;;;;;;2.40;1.30;;;6.70;99.90;;;;;;5113412;28;20544;-66
2021/04/28 00:27:22;;;;;;;2.70;1.30;;;6.70;99.90;;;;;;5115344;28;20110;-66
2021/04/28 00:30:26;;;;;;;3.20;1.35;;;6.60;99.90;;;;;;5093155;28;20109;-66
2021/04/28 00:40:12;;;;;;;3.00;1.17;;;6.60;99.90;;;;;;5112186;28;20058;-66
2021/04/28 00:49:49;;;;;;;3.00;1.45;;;6.60;99.90;;;;;;5113231;28;20137;-67
2021/04/28 00:52:21;;;;;;;3.83;1.33;;;6.50;99.90;;;;;;5125702;28;20114;-66
2021/04/28 00:55:04;;;;;;;2.65;1.13;;;6.50;99.90;;;;;;5109373;28;20128;-66
2021/04/28 01:12:20;;;;;;;3.70;1.50;;;6.40;99.90;;;;;;5094235;28;20047;-67
2021/04/28 01:14:54;;;;;;;1.85;1.10;;;6.50;99.90;;;;;;5096658;28;20120;-67
2021/04/28 01:17:22;;;;;;;2.85;1.20;;;6.40;99.90;;;;;;5096609;28;20040;-67
2021/04/28 01:19:53;;;;;;;2.85;1.20;;;6.40;99.90;;;;;;5092782;28;20476;-67
2021/04/28 01:29:50;;;;;;;1.52;0.90;;;6.40;99.90;;;;;;5095651;28;20452;-67
2021/04/28 01:32:26;;;;;;;2.17;1.10;;;6.40;99.90;;;;;;5107851;28;20039;-66
2021/04/28 01:34:54;;;;;;;2.67;1.40;;;6.30;99.90;;;;;;5090248;28;20489;-66
2021/04/28 01:37:25;;;;;;;3.53;1.48;;;6.30;99.90;;;;;;5076228;28;20475;-67
2021/04/28 01:39:51;;;;;;;2.05;1.15;;;6.20;99.90;;;;;;5095733;28;20091;-67
2021/04/28 01:42:22;;;;;;;3.40;1.20;;;6.20;99.90;;;;;;5096219;28;20048;-67
2021/04/28 01:44:51;;;;;;;3.97;1.17;;;6.20;99.90;;;;;;5095251;28;20063;-67
2021/04/28 01:54:54;;;;;;;3.15;1.40;;;6.10;99.90;;;;;;5114244;28;20034;-67
2021/04/28 01:57:25;;;;;;;3.03;1.50;;;6.10;99.90;;;;;;5117756;27;20056;-67
2021/04/28 02:00:16;;;;;;;1.92;1.20;;;6.10;99.90;;;;;;5118645;27;20075;-67
2021/04/28 02:07:18;;;;;;;4.68;1.42;;;6.00;99.90;;;;;;5121205;27;20488;-67
2021/04/28 02:10:06;;;;;;;2.65;1.15;;;5.90;99.90;;;;;;5112821;28;20504;-67
2021/04/28 02:12:51;;;;;;;2.00;1.40;;;5.90;99.90;;;;;;5107123;28;20407;-67
2021/04/28 02:15:43;;;;;;;2.13;1.10;;;5.90;99.90;;;;;;5113314;27;20050;-67
2021/04/28 02:18:14;;;;;;;3.42;1.33;;;5.80;99.90;;;;;;5102149;28;20162;-67
2021/04/28 02:20:40;;;;;;;2.50;1.08;;;5.80;99.90;;;;;;5121703;27;20533;-67
2021/04/28 02:23:16;;;;;;;3.05;1.30;;;5.80;99.90;;;;;;5101567;27;20040;-67
2021/04/28 02:29:50;;;;;;;2.65;1.30;;;5.70;99.90;;;;;;5114948;28;20154;-66
2021/04/28 02:32:53;;;;;;;2.20;1.10;;;5.70;99.90;;;;;;5118154;27;20058;-67
2021/04/28 02:35:38;;;;;;;2.95;1.40;;;5.60;99.90;;;;;;5097603;28;20175;-66
2021/04/28 02:38:31;;;;;;;5.80;1.75;;;5.60;99.90;;;;;;5114886;27;20048;-66
2021/04/28 02:44:54;;;;;;;2.22;1.10;;;5.50;99.90;;;;;;5119610;27;20244;-67
2021/04/28 02:54:51;;;;;;;4.80;1.60;;;5.50;99.90;;;;;;5114526;28;20084;-67
2021/04/28 03:04:54;;;;;;;2.90;1.58;;;5.30;99.90;;;;;;5135209;27;20078;-67
2021/04/28 03:07:23;;;;;;;2.38;1.17;;;5.30;99.90;;;;;;5117881;27;20058;-66
2021/04/28 03:09:55;;;;;;;3.60;1.73;;;5.30;99.90;;;;;;5117262;27;20043;-66
2021/04/28 03:12:36;;;;;;;2.85;1.50;;;5.30;99.90;;;;;;5096419;28;20532;-66
2021/04/28 03:15:29;;;;;;;4.03;1.30;;;5.20;99.90;;;;;;5122726;27;20386;-66
2021/04/28 03:22:19;;;;;;;3.97;1.63;;;5.20;99.90;;;;;;5123466;27;20058;-66
2021/04/28 03:24:51;;;;;;;3.03;1.25;;;5.10;99.90;;;;;;5119030;27;20062;-66
2021/04/28 03:27:24;;;;;;;4.07;1.10;;;5.10;99.90;;;;;;5110157;28;20035;-66
2021/04/28 03:29:52;;;;;;;4.65;1.50;;;5.10;99.90;;;;;;5123309;27;20394;-67
2021/04/28 03:32:19;;;;;;;3.53;1.60;;;5.00;99.90;;;;;;5114330;28;20048;-66
2021/04/28 03:35:07;;;;;;;3.85;1.80;;;5.00;99.90;;;;;;5114116;28;20042;-66
2021/04/28 03:44:56;;;;;;;3.72;1.75;;;4.80;99.90;;;;;;5113958;28;20051;-66
2021/04/28 03:47:30;;;;;;;4.20;1.42;;;4.90;99.90;;;;;;5093797;28;20048;-66
2021/04/28 03:49:58;;;;;;;3.13;1.60;;;4.90;99.90;;;;;;5113903;28;20070;-66
2021/04/28 03:52:37;;;;;;;3.60;1.95;;;4.90;99.90;;;;;;5134133;28;20051;-67
2021/04/28 04:15:34;;;;;;;3.30;1.30;;;4.90;99.90;;;;;;5127976;28;20051;-67
2021/04/28 04:25:27;;;;;;;3.05;1.50;;;4.90;99.90;;;;;;5111177;28;20040;-67
2021/04/28 04:28:05;;;;;;;3.20;1.70;;;4.90;99.90;;;;;;5100745;28;20039;-66
2021/04/28 04:35:02;;;;;;;2.33;1.10;;;4.90;99.90;;;;;;5117251;28;20397;-67
2021/04/28 04:37:46;;;;;;;3.35;1.58;;;5.00;99.90;;;;;;5099667;27;20036;-67
2021/04/28 04:40:22;;;;;;;2.88;1.33;;;5.00;99.90;;;;;;5117209;27;20073;-67
2021/04/28 04:42:55;;;;;;;4.20;2.05;;;5.00;99.90;;;;;;5117098;28;20059;-67
2021/04/28 04:45:23;;;;;;;3.72;1.90;;;5.10;99.90;;;;;;5101263;27;20050;-67
2021/04/28 04:48:12;;;;;;;3.55;1.55;;;5.10;99.90;;;;;;5122884;27;20088;-66
2021/04/28 04:50:40;;;;;;;4.43;1.80;;;5.30;99.90;;;;;;5132428;27;20044;-66
2021/04/28 05:05:07;;;;;;;3.03;1.42;;;5.40;99.90;;;;;;5088126;28;20062;-67
2021/04/28 05:07:48;;;;;;;4.55;1.90;;;5.50;99.90;;;;;;5071870;28;20045;-67
2021/04/28 05:10:53;;;;;;;4.68;2.00;;;5.50;99.90;;;;;;5059171;28;20044;-66
2021/04/28 05:21:02;;;;;;;4.18;1.40;;;5.70;99.90;;;;;;5089606;28;20043;-66
2021/04/28 05:23:41;;;;;;;3.13;1.88;;;5.70;99.90;;;;;;5055908;28;20037;-67
2021/04/28 05:26:09;;;;;;;4.10;1.77;;;5.80;99.90;;;;;;5075366;28;20041;-66
2021/04/28 05:28:46;;;;;;;4.43;1.50;;;5.80;99.90;;;;;;5088691;28;20044;-67
2021/04/28 05:31:14;;;;;;;3.20;1.40;;;5.80;99.90;;;;;;5095344;28;20399;-66
2021/04/28 05:33:46;;;;;;;2.88;1.40;;;5.90;99.90;;;;;;5081124;28;20116;-66
2021/04/28 05:36:17;;;;;;;4.10;1.52;;;5.90;99.90;;;;;;5088587;28;20131;-66
2021/04/28 05:42:30;;;;;;;4.00;1.48;;;6.00;99.90;;;;;;5079555;28;20078;-66
2021/04/28 05:45:15;;;;;;;3.17;1.60;;;6.10;99.90;;;;;;5074836;28;20090;-67
2021/04/28 05:48:20;;;;;;;3.47;1.73;;;6.10;99.90;;;;;;5071169;28;20044;-66
2021/04/28 05:55:07;;;;;;;3.20;1.40;;;6.20;99.90;;;;;;5065989;28;20062;-66
2021/04/28 05:58:16;;;;;;;5.10;1.95;;;6.30;99.90;;;;;;5070523;28;20122;-66
2021/04/28 06:01:08;;;;;;;2.97;1.45;;;6.30;99.90;;;;;;5072800;28;20181;-65
2021/04/28 06:03:50;;;;;;;5.38;2.00;;;6.40;99.90;;;;;;5074922;28;20499;-66
2021/04/28 06:06:22;;;;;;;3.20;1.35;;;6.50;99.90;;;;;;5070481;28;20041;-66
2021/04/28 06:08:57;;;;;;;5.25;1.73;;;6.50;99.90;;;;;;5074904;28;20484;-67
2021/04/28 06:11:29;;;;;;;3.47;1.88;;;6.60;99.90;;;;;;5070293;28;20055;-67
2021/04/28 06:18:15;;;;;;;3.58;1.73;;;6.60;99.90;;;;;;5074473;28;20081;-66
2021/04/28 06:20:46;;;;;;;4.03;1.67;;;6.60;99.90;;;;;;5074460;28;20037;-67
2021/04/28 06:23:18;;;;;;;4.28;1.95;;;6.60;99.90;;;;;;5073624;28;20040;-68
2021/04/28 06:25:48;;;;;;;5.38;1.90;;;6.70;99.90;;;;;;5074679;28;20037;-66
2021/04/28 06:28:24;;;;;;;3.92;1.50;;;6.70;99.90;;;;;;5074645;28;20063;-68
2021/04/28 06:31:07;;;;;;;3.45;1.80;;;6.80;99.90;;;;;;5073353;28;20075;-67
2021/04/28 06:33:47;;;;;;;4.85;1.80;;;6.80;99.90;;;;;;5074204;28;20153;-67
2021/04/28 06:36:34;;;;;;;3.10;1.65;;;6.90;99.90;;;;;;5074845;28;20052;-68
2021/04/28 06:39:12;;;;;;;6.57;2.03;;;7.00;99.90;;;;;;5067032;28;20049;-68
2021/04/28 06:41:44;;;;;;;3.72;1.90;;;7.00;99.90;;;;;;5074194;28;20044;-67
2021/04/28 06:44:11;;;;;;;3.50;1.55;;;7.10;99.90;;;;;;5073928;28;20052;-66
2021/04/28 06:53:36;;;;;;;5.07;1.95;;;7.20;99.90;;;;;;5067346;28;20044;-66
2021/04/28 06:56:08;;;;;;;4.20;2.03;;;7.30;99.90;;;;;;5073054;28;20040;-66
2021/04/28 06:58:34;;;;;;;5.90;1.90;;;7.30;99.90;;;;;;5072155;28;20037;-67
2021/04/28 07:01:13;;;;;;;7.20;2.03;;;7.40;99.90;;;;;;5109446;28;20047;-67
2021/04/28 07:10:55;;;;;;;4.50;1.80;;;7.60;99.90;;;;;;5094769;28;20044;-66
2021/04/28 07:13:43;;;;;;;4.60;1.90;;;7.60;99.90;;;;;;5094144;28;20123;-67
2021/04/28 07:16:27;;;;;;;3.72;1.80;;;7.70;99.90;;;;;;5094069;27;20509;-68
2021/04/28 07:22:56;;;;;;;5.05;2.13;;;7.70;99.90;;;;;;5122409;27;20038;-65
2021/04/28 07:25:52;;;;;;;3.88;1.75;;;7.80;99.90;;;;;;5117173;27;20040;-65
2021/04/28 07:28:25;;;;;;;4.18;2.05;;;7.90;99.90;;;;;;5108373;28;20584;-65
2021/04/28 07:31:03;;;;;;;4.72;2.10;;;8.00;99.90;;;;;;5129569;27;20031;-65
2021/04/28 07:33:44;;;;;;;4.13;1.88;;;8.00;99.90;;;;;;5113669;27;20043;-65
2021/04/28 07:36:26;;;;;;;5.38;2.40;;;8.30;99.90;;;;;;5126434;27;20043;-65
2021/04/28 07:38:59;;;;;;;7.63;2.80;;;8.30;99.90;;;;;;5126710;27;20040;-65
2021/04/28 07:41:35;;;;;;;5.47;2.55;;;8.50;99.90;;;;;;5099465;27;20044;-65
2021/04/28 07:44:25;;;;;;;5.70;2.60;;;8.70;99.90;;;;;;5099799;27;20040;-65
2021/04/28 07:47:04;;;;;;;7.70;1.90;;;8.70;99.90;;;;;;5101836;28;20481;-65
2021/04/28 07:53:29;;;;;;;4.00;1.90;;;8.90;99.90;;;;;;5128804;27;20058;-66
2021/04/28 08:03:42;;;;;;;4.88;2.58;;;9.20;99.90;;;;;;5117933;28;20043;-65
2021/04/28 08:06:26;;;;;;;5.30;2.17;;;9.40;99.90;;;;;;5129614;27;20114;-65
2021/04/28 08:08:57;;;;;;;8.45;3.10;;;9.50;99.90;;;;;;5126354;27;20083;-66
2021/04/28 08:11:35;;;;;;;7.30;2.67;;;9.60;97.90;;;;;;5121549;27;20493;-65
2021/04/28 08:18:22;;;;;;;6.10;2.65;;;9.80;96.80;;;;;;5109950;28;20042;-66
2021/04/28 08:21:12;;;;;;;6.32;2.80;;;9.90;99.90;;;;;;5111822;28;20044;-66
2021/04/28 08:23:56;;;;;;;6.97;3.28;;;10.00;92.60;;;;;;5118075;28;20047;-66
2021/04/28 08:30:55;;;;;;;7.45;3.33;;;10.20;99.10;;;;;;5097078;28;20469;-66
2021/04/28 08:33:23;;;;;;;4.75;2.47;;;10.40;93.90;;;;;;5106913;27;20061;-66
2021/04/28 08:36:29;;;;;;;4.00;2.10;;;10.40;97.50;;;;;;5125025;27;20035;-66
2021/04/28 08:39:08;;;;;;;8.13;3.40;;;10.50;99.90;;;;;;5122552;27;20040;-66
2021/04/28 08:41:38;;;;;;;4.65;2.70;;;10.70;92.00;;;;;;5116946;27;20044;-66
2021/04/28 08:47:45;;;;;;;5.75;3.33;;;10.90;92.90;;;;;;5127135;27;20056;-66
2021/04/28 08:50:52;;;;;;;5.75;2.88;;;11.10;79.90;;;;;;5117012;28;20039;-67
2021/04/28 08:53:33;;;;;;;4.25;2.55;;;11.10;89.10;;;;;;5118136;27;20047;-66
2021/04/28 08:56:07;;;;;;;5.85;3.03;;;11.10;81.80;;;;;;5112613;28;20071;-66
2021/04/28 08:59:16;;;;;;;8.38;3.58;;;11.20;89.90;;;;;;5097938;28;20096;-66
2021/04/28 09:01:49;;;;;;;7.47;3.00;;;11.30;75.00;;;;;;5081448;28;20330;-66
2021/04/28 09:08:26;;;;;;;7.50;3.95;;;11.40;88.10;;;;;;5062330;28;20141;-65
2021/04/28 09:10:58;;;;;;;5.90;2.97;;;11.60;73.40;;;;;;5081727;28;20040;-66
2021/04/28 09:13:26;;;;;;;7.50;4.30;;;11.60;71.80;;;;;;5069618;28;20431;-66
2021/04/28 09:15:54;;;;;;;8.43;3.75;;;11.70;62.60;;;;;;5075675;28;20070;-66
2021/04/28 09:25:57;;;;;;;9.40;4.05;;;11.80;75.60;;;;;;5075602;28;20051;-66
2021/04/28 09:28:29;;;;;;;9.25;3.90;;;11.90;62.40;;;;;;5075889;28;20059;-66
2021/04/28 09:31:17;;;;;;;8.55;3.25;;;12.00;65.20;;;;;;5070820;28;20494;-66
2021/04/28 09:44:56;;;;;;;7.60;3.85;;;12.20;64.30;;;;;;5063266;28;20112;-64
2021/04/28 09:51:31;;;;;;;6.53;3.85;;;12.40;60.30;;;;;;5055393;28;20052;-66
2021/04/28 09:58:32;;;;;;;7.78;3.90;;;12.70;65.40;;;;;;5074908;28;20043;-68
2021/04/28 10:01:08;;;;;;;6.20;3.60;;;12.80;60.00;;;;;;5088248;28;20062;-68
2021/04/28 10:03:55;;;;;;;5.68;3.25;;;12.80;60.60;;;;;;5075762;28;20064;-68
2021/04/28 10:06:49;;;;;;;6.38;3.70;;;12.70;65.40;;;;;;5098471;28;20044;-68
2021/04/28 10:16:34;;;;;;;6.95;3.80;;;12.90;57.10;;;;;;5098888;28;20072;-68
2021/04/28 10:19:25;;;;;;;8.43;3.80;;;12.90;55.80;;;;;;5091197;28;20085;-67
2021/04/28 10:21:55;;;;;;;5.93;3.28;;;13.00;55.70;;;;;;5081053;28;20502;-64
2021/04/28 10:28:40;;;;;;;5.15;2.83;;;13.10;58.00;;;;;;5101783;28;20057;-64
2021/04/28 10:31:16;;;;;;;8.00;3.33;;;13.10;55.50;;;;;;5102684;28;20108;-64
2021/04/28 10:34:00;;;;;;;8.50;3.30;;;13.20;51.30;;;;;;5094923;28;20176;-64
2021/04/28 10:36:56;;;;;;;6.57;3.78;;;13.20;51.60;;;;;;5094949;28;20044;-64
2021/04/28 10:39:53;;;;;;;6.50;3.33;;;13.30;50.10;;;;;;5082009;28;20046;-64
2021/04/28 10:46:21;;;;;;;6.82;3.30;;;13.50;50.60;;;;;;5094131;28;20494;-66
2021/04/28 10:49:17;;;;;;;5.30;2.65;;;13.50;51.40;;;;;;5094319;28;20032;-65
2021/04/28 10:51:58;;;;;;;6.15;3.05;;;13.50;48.70;;;;;;5094085;28;20051;-65
2021/04/28 10:54:41;;;;;;;5.00;3.17;;;13.60;48.90;;;;;;5114134;28;20062;-63
2021/04/28 10:57:37;;;;;;;9.23;3.85;;;13.50;47.80;;;;;;5099103;28;20040;-69
2021/04/28 11:00:31;;;;;;;;;;;;;;;;;;;;;
2021/04/28 11:14:52;;;;;;;7.15;3.83;;;13.90;48.90;;;;;;5100995;28;20394;-68
2021/04/28 11:21:36;;;;;;;;;;;;;;;;;;;;;
2021/04/28 11:31:50;;;;;;;7.97;4.18;;;14.20;48.50;;;;;;5093602;28;20044;-68
2021/04/28 11:34:36;;;;;;;8.00;3.60;;;14.30;46.30;;;;;;5091045;27;20044;-68
2021/04/28 11:37:13;;;;;;;5.80;3.42;;;14.40;47.10;;;;;;5133005;27;20109;-68
2021/04/28 11:43:56;;;;;;;5.95;3.63;;;14.50;45.20;;;;;;5113681;28;20405;-68
2021/04/28 11:46:32;;;;;;;5.70;3.53;;;14.50;45.30;;;;;;5111584;28;20071;-67
2021/04/28 11:49:01;;;;;;;8.80;4.28;;;14.60;48.10;;;;;;5113837;28;20036;-68
2021/04/28 11:51:58;;;;;;;10.95;4.22;;;14.60;47.00;;;;;;5110182;28;20097;-68
2021/04/28 11:54:59;;;;;;;6.22;3.78;;;14.60;48.30;;;;;;5115502;28;20043;-67
2021/04/28 12:09:26;;;;;;;8.80;4.10;;;14.80;45.50;;;;;;5124135;28;20061;-67
2021/04/28 12:12:26;;;;;;;7.97;4.07;;;14.80;46.10;;;;;;5113361;28;20044;-67
2021/04/28 12:15:14;;;;;;;8.95;4.80;;;14.80;46.70;;;;;;5075550;28;20086;-67
2021/04/28 12:18:10;;;;;;;7.40;3.95;;;14.90;45.60;;;;;;5094939;28;20040;-69
2021/04/28 12:20:41;;;;;;;6.18;3.92;;;14.90;45.20;;;;;;5098639;28;20478;-67
2021/04/28 12:23:10;;;;;;;7.10;4.15;;;15.00;45.30;;;;;;5098887;28;20479;-68
2021/04/28 12:25:38;;;;;;;8.48;4.28;;;15.00;44.10;;;;;;5113884;28;20103;-68
2021/04/28 12:31:54;;;;;;;6.22;3.75;;;15.00;45.60;;;;;;5107841;28;20064;-68
2021/04/28 12:42:29;;;;;;;7.43;4.68;;;15.40;45.30;;;;;;5112941;28;20509;-67
2021/04/28 12:45:22;;;;;;;5.90;4.30;;;15.30;44.50;;;;;;5116101;28;20039;-68
2021/04/28 12:48:17;;;;;;;6.40;3.95;;;15.40;45.50;;;;;;5095487;28;20047;-68
2021/04/28 12:55:01;;;;;;;8.43;4.55;;;15.50;57.20;;;;;;5108471;27;20039;-67
2021/04/28 12:57:56;;;;;;;7.07;4.10;;;15.70;54.20;;;;;;5116940;28;20138;-67
2021/04/28 13:00:23;;;;;;;11.18;4.75;;;15.70;61.90;;;;;;5097678;28;20122;-67
2021/04/28 13:11:05;;;;;;;9.68;4.88;;;15.60;60.40;;;;;;5116556;28;20038;-68
2021/04/28 13:14:17;;;;;;;9.43;5.35;;;15.70;61.50;;;;;;5121846;27;20067;-68
2021/04/28 13:17:28;;;;;;;8.15;4.82;;;15.50;66.50;;;;;;5126223;27;20497;-68
2021/04/28 13:20:24;;;;;;;14.77;5.25;;;15.40;67.20;;;;;;5137453;27;20071;-67
2021/04/28 13:22:54;;;;;;;16.95;5.47;;;15.20;70.60;;;;;;5099081;28;20047;-67
2021/04/28 13:25:50;;;;;;;11.45;5.25;;;15.20;81.40;;;;;;5132928;27;20047;-65
2021/04/28 13:32:34;;;;;;;10.70;5.63;;;15.40;74.10;;;;;;5120431;27;20046;-67
2021/04/28 13:35:40;;;;;;;9.23;4.78;;;15.50;62.90;;;;;;5117450;27;20063;-67
2021/04/28 13:42:27;;;;;;;11.20;5.07;;;15.40;63.30;;;;;;5121744;27;20081;-67
2021/04/28 13:45:39;;;;;;;9.10;4.97;;;15.30;74.90;;;;;;5115374;28;20073;-66
2021/04/28 13:48:19;;;;;;;10.55;5.60;;;15.30;75.30;;;;;;5103000;27;20479;-67
2021/04/28 13:54:54;;;;;;;12.10;6.03;;;15.20;72.10;;;;;;5132341;27;20057;-66
2021/04/28 13:57:28;;;;;;;14.98;5.70;;;15.30;70.70;;;;;;5106502;28;20089;-67
2021/04/28 13:59:59;;;;;;;12.25;5.50;;;15.30;70.40;;;;;;5113755;27;20051;-66
2021/04/28 14:02:29;;;;;;;12.57;5.47;;;15.40;60.80;;;;;;5116658;28;20077;-67
2021/04/28 14:05:04;;;;;;;8.98;5.05;;;15.40;60.90;;;;;;5095751;28;20123;-66
2021/04/28 14:07:31;;;;;;;11.57;5.35;;;15.40;60.50;;;;;;5114416;28;20036;-68
2021/04/28 14:10:05;;;;;;;8.43;4.80;;;15.50;59.00;;;;;;5119823;27;20050;-65
2021/04/28 14:12:52;;;;;;;13.85;5.65;;;15.50;59.30;;;;;;5095955;28;20116;-65
2021/04/28 14:15:42;;;;;;;22.95;6.07;;;15.50;60.60;;;;;;5126914;27;20051;-65
2021/04/28 14:18:16;;;;;;;10.93;5.30;;;15.60;59.30;;;;;;5109730;28;20055;-65
2021/04/28 14:21:18;;;;;;;7.93;4.93;;;15.60;56.40;;;;;;5100414;28;20051;-64
2021/04/28 14:23:59;;;;;;;13.27;6.00;;;15.60;59.00;;;;;;5104669;28;20127;-65
2021/04/28 14:30:33;;;;;;;8.75;4.88;;;15.80;58.80;;;;;;5122436;27;20053;-64
2021/04/28 14:33:52;;;;;;;8.70;5.00;;;15.80;55.80;;;;;;5135564;27;20104;-64
2021/04/28 14:36:19;;;;;;;11.40;5.68;;;15.70;56.60;;;;;;5110409;28;20039;-64
2021/04/28 14:38:47;;;;;;;10.77;5.60;;;15.60;58.20;;;;;;5110241;28;20048;-64
2021/04/28 14:41:27;;;;;;;9.55;5.05;;;15.50;57.70;;;;;;5111183;27;20161;-65
2021/04/28 14:43:54;;;;;;;9.27;5.43;;;15.50;57.70;;;;;;5126735;27;20090;-64
2021/04/28 14:46:29;;;;;;;9.07;5.10;;;15.50;58.40;;;;;;5117017;27;20165;-64
2021/04/28 14:49:08;;;;;;;10.48;5.28;;;15.50;58.50;;;;;;5132245;27;20501;-64
2021/04/28 14:51:55;;;;;;;9.95;5.68;;;15.50;58.20;;;;;;5114630;28;20087;-64
2021/04/28 14:54:26;;;;;;;12.48;6.00;;;15.30;57.20;;;;;;5118492;27;20039;-64
2021/04/28 15:00:58;;;;;;;9.98;5.60;;;15.10;57.60;;;;;;5115243;27;20445;-64
2021/04/28 15:03:44;;;;;;;8.70;4.70;;;15.00;59.40;;;;;;5074671;28;20068;-64
2021/04/28 15:06:29;;;;;;;8.27;4.75;;;15.00;62.50;;;;;;5087587;28;20465;-64
2021/04/28 15:23:45;;;;;;;14.18;5.13;;;14.40;68.40;;;;;;5084776;28;20031;-65
2021/04/28 15:26:17;;;;;;;10.38;5.25;;;14.30;74.50;;;;;;5091317;28;20074;-65
2021/04/28 15:28:49;;;;;;;10.95;5.50;;;14.20;74.80;;;;;;5082847;28;20043;-65
2021/04/28 15:31:18;;;;;;;10.75;5.20;;;14.10;74.40;;;;;;5069159;28;20036;-64
2021/04/28 15:33:53;;;;;;;10.45;5.38;;;14.00;77.50;;;;;;5073581;28;20052;-64
2021/04/28 15:36:25;;;;;;;10.52;4.40;;;13.90;76.00;;;;;;5073943;28;20377;-65
2021/04/28 15:39:02;;;;;;;12.27;5.15;;;13.90;77.20;;;;;;5072060;28;20040;-64
2021/04/28 15:41:28;;;;;;;12.57;5.70;;;13.80;70.70;;;;;;5075219;28;20044;-64
2021/04/28 15:51:22;;;;;;;8.18;4.65;;;13.60;76.80;;;;;;5087682;28;20044;-64
2021/04/28 15:53:57;;;;;;;10.85;5.43;;;13.60;74.40;;;;;;5093420;28;20044;-65
2021/04/28 15:56:48;;;;;;;8.40;4.93;;;13.60;71.20;;;;;;5073845;28;20047;-64
2021/04/28 15:59:23;;;;;;;9.88;5.20;;;13.50;71.10;;;;;;5057349;28;20036;-64
2021/04/28 16:01:48;;;;;;;10.88;5.03;;;13.40;71.90;;;;;;5081437;28;20411;-64
2021/04/28 16:04:33;;;;;;;9.70;5.40;;;13.40;74.60;;;;;;5115029;28;20055;-65
2021/04/28 16:07:09;;;;;;;13.85;5.32;;;13.30;77.20;;;;;;5100272;28;20471;-64
2021/04/28 16:09:36;;;;;;;12.23;5.20;;;13.30;80.40;;;;;;5088435;28;20047;-64
2021/04/28 16:12:04;;;;;;;9.38;4.35;;;13.30;77.50;;;;;;5099130;28;20062;-64
2021/04/28 16:14:39;;;;;;;9.60;4.90;;;13.20;75.00;;;;;;5113636;28;20040;-64
2021/04/28 16:21:19;;;;;;;8.68;4.40;;;13.20;75.60;;;;;;5129137;28;20115;-64
2021/04/28 16:23:52;;;;;;;10.23;3.47;;;13.10;68.00;;;;;;5124076;28;20046;-64
2021/04/28 16:26:24;;;;;;;7.72;3.80;;;13.10;67.20;;;;;;5132566;28;20039;-64
2021/04/28 16:28:51;;;;;;;8.23;3.93;;;13.20;69.40;;;;;;5118127;27;20043;-64
2021/04/28 16:31:21;;;;;;;9.70;4.05;;;13.10;71.70;;;;;;5123498;27;20043;-64
2021/04/28 16:33:51;;;;;;;13.55;4.50;;;13.00;76.20;;;;;;5097852;28;20115;-64
2021/04/28 16:36:27;;;;;;;11.98;4.60;;;12.90;72.80;;;;;;5122012;27;20047;-64
2021/04/28 16:42:32;;;;;;;10.40;5.00;;;12.90;84.00;;;;;;5121075;27;20047;-65
2021/04/28 16:45:16;;;;;;;6.93;4.13;;;12.90;83.30;;;;;;5118013;27;20044;-64
2021/04/28 16:47:53;;;;;;;;;;;12.80;97.70;;;;;;5115848;28;20047;-65
2021/04/28 16:50:26;;;;;;;8.63;4.63;;;12.80;95.00;;;;;;5122290;27;19989;-65
2021/04/28 16:53:03;;;;;;;12.45;6.20;;;12.70;93.80;;;;;;5117417;28;20372;-65
2021/04/28 16:55:38;;;;;;;14.98;5.50;;;12.50;97.70;;;;;;5120824;27;20475;-64
2021/04/28 16:58:09;;;;;;;13.05;6.18;;;12.40;99.90;;;;;;5102549;27;20494;-65
2021/04/28 17:00:56;;;;;;;15.43;6.32;;;12.30;98.50;;;;;;5129378;27;20050;-65
2021/04/28 17:03:25;;;;;;;19.02;8.13;;;12.40;98.30;;;;;;5123327;27;20379;-65
2021/04/28 17:10:02;;;;;;;11.45;5.00;;;12.20;99.80;;;;;;5117957;27;20035;-65
2021/04/28 17:12:28;;;;;;;10.00;4.72;;;12.10;99.80;;;;;;5114026;28;20438;-65
2021/04/28 17:14:58;;;;;;;10.63;4.38;;;12.10;99.90;;;;;;5116751;28;20039;-66
2021/04/28 17:17:30;;;;;;;9.48;4.43;;;12.10;99.90;;;;;;5116864;28;20508;-63
2021/04/28 17:20:25;;;;;;;10.95;5.03;;;12.00;99.90;;;;;;5116554;28;20042;-64
2021/04/28 17:22:57;;;;;;;7.88;4.10;;;11.90;99.90;;;;;;5113413;28;20054;-64
2021/04/28 17:25:48;;;;;;;7.93;4.50;;;12.00;99.90;;;;;;5116434;28;20047;-64
2021/04/28 17:32:28;;;;;;;10.13;4.07;;;11.90;99.90;;;;;;5116205;28;20576;-64
2021/04/28 17:35:16;;;;;;;8.55;4.20;;;11.80;99.90;;;;;;5108876;28;20048;-65
2021/04/28 17:37:48;;;;;;;11.30;4.65;;;11.80;99.90;;;;;;5116384;27;20040;-65
2021/04/28 17:40:16;;;;;;;10.57;4.32;;;11.80;99.90;;;;;;5128226;27;20035;-64
2021/04/28 17:42:51;;;;;;;13.57;4.80;;;11.70;99.90;;;;;;5098763;28;20059;-64
2021/04/28 17:45:42;;;;;;;12.27;4.55;;;11.70;99.90;;;;;;5113189;27;20097;-64
2021/04/28 17:52:35;;;;;;;11.82;4.82;;;11.60;99.90;;;;;;5115693;28;20062;-64
2021/04/28 17:55:05;;;;;;;12.38;5.55;;;11.60;99.90;;;;;;5097796;28;20039;-64
2021/04/28 17:57:37;;;;;;;11.40;4.53;;;11.50;99.90;;;;;;5112192;27;20078;-64
2021/04/28 18:00:36;;;;;;;7.07;3.58;;;11.50;99.90;;;;;;5110645;28;20551;-64
2021/04/28 18:03:02;;;;;;;6.32;3.28;;;11.50;99.90;;;;;;5085554;28;20060;-64
2021/04/28 18:05:30;;;;;;;7.07;3.95;;;11.50;99.90;;;;;;5098865;28;20047;-64
2021/04/28 18:08:11;;;;;;;8.65;4.10;;;11.50;99.90;;;;;;5074137;28;20454;-65
2021/04/28 18:10:48;;;;;;;10.73;4.97;;;11.40;99.90;;;;;;5093575;28;20434;-65
2021/04/28 18:13:32;;;;;;;10.32;4.90;;;11.30;99.90;;;;;;5098358;28;20490;-65
2021/04/28 18:16:14;;;;;;;10.90;5.20;;;11.30;99.90;;;;;;5106949;28;20052;-65
2021/04/28 18:22:39;;;;;;;9.70;4.72;;;11.20;99.90;;;;;;5099299;28;20077;-64
2021/04/28 18:25:54;;;;;;;11.63;4.88;;;11.10;99.90;;;;;;5094889;28;20379;-64
2021/04/28 18:43:09;;;;;;;9.70;4.68;;;10.80;99.90;;;;;;5111474;28;20038;-65
2021/04/28 18:45:43;;;;;;;7.80;4.30;;;10.80;99.90;;;;;;5097368;28;20036;-65
2021/04/28 18:48:26;;;;;;;10.07;4.45;;;10.70;99.90;;;;;;5105919;28;20483;-65
2021/04/28 18:58:43;;;;;;;9.98;4.45;;;10.50;99.90;;;;;;5096715;28;20056;-64
2021/04/28 19:01:19;;;;;;;10.70;5.18;;;10.50;99.90;;;;;;5094127;28;20055;-63
2021/04/28 19:08:10;;;;;;;9.80;4.65;;;10.40;99.90;;;;;;5093776;28;20089;-64
2021/04/28 19:11:01;;;;;;;7.07;3.95;;;10.40;99.90;;;;;;5091037;28;20086;-65
2021/04/28 19:13:33;;;;;;;10.05;4.80;;;10.40;99.90;;;;;;5075628;28;20396;-65
2021/04/28 19:16:14;;;;;;;10.38;4.15;;;10.30;99.90;;;;;;5091313;28;20044;-64
2021/04/28 19:18:45;;;;;;;9.32;4.32;;;10.30;99.90;;;;;;5102720;28;20497;-66
2021/04/28 19:28:22;;;;;;;10.05;3.85;;;10.20;99.90;;;;;;5110959;28;20483;-66
2021/04/28 19:31:04;;;;;;;10.15;4.13;;;10.20;99.90;;;;;;5112090;28;20554;-65
2021/04/28 19:33:44;;;;;;;8.75;4.38;;;10.10;99.90;;;;;;5075279;28;20059;-64
2021/04/28 19:36:17;;;;;;;8.77;3.55;;;10.20;99.90;;;;;;5096264;28;20044;-64
2021/04/28 19:38:44;;;;;;;9.77;3.80;;;10.10;99.90;;;;;;5075692;28;20119;-64
2021/04/28 19:41:11;;;;;;;10.07;3.95;;;10.10;99.90;;;;;;5076902;28;20094;-63
2021/04/28 19:43:57;;;;;;;9.95;3.97;;;10.10;99.90;;;;;;5101417;28;20047;-63
2021/04/28 19:46:29;;;;;;;11.32;4.22;;;10.10;99.90;;;;;;5093456;28;20050;-63
2021/04/28 19:49:05;;;;;;;13.07;3.97;;;10.20;99.90;;;;;;5093593;28;20088;-63
2021/04/28 19:51:37;;;;;;;10.98;4.38;;;10.00;99.90;;;;;;5093215;28;20313;-63
2021/04/28 19:54:09;;;;;;;8.30;4.03;;;10.00;99.90;;;;;;5088305;28;20071;-63
2021/04/28 20:00:25;;;;;;;9.43;3.85;;;9.90;99.90;;;;;;5113335;28;20132;-63
2021/04/28 20:02:52;;;;;;;9.13;4.38;;;9.90;99.90;;;;;;5093205;27;20043;-63
2021/04/28 20:05:49;;;;;;;8.60;4.32;;;9.90;99.90;;;;;;5115370;28;20043;-63
2021/04/28 20:08:46;;;;;;;9.57;4.65;;;9.90;99.90;;;;;;5095852;28;20035;-64
2021/04/28 20:22:01;;;;;;;8.98;4.40;;;9.90;99.90;;;;;;5114934;28;20038;-63
2021/04/28 20:28:16;;;;;;;9.75;4.50;;;9.90;99.90;;;;;;5115151;28;20127;-63
2021/04/28 20:31:17;;;;;;;10.93;5.25;;;9.90;99.90;;;;;;5113507;28;20032;-63
2021/04/28 20:34:06;;;;;;;6.97;4.20;;;9.90;99.90;;;;;;5097291;28;20055;-63
2021/04/28 20:36:33;;;;;;;12.95;4.47;;;9.80;99.90;;;;;;5102458;28;20040;-63
2021/04/28 20:43:18;;;;;;;8.18;4.50;;;9.80;99.90;;;;;;5113918;28;20038;-64
2021/04/28 20:45:46;;;;;;;9.15;5.10;;;9.80;99.90;;;;;;5109707;28;20080;-63
2021/04/28 20:48:18;;;;;;;12.82;5.00;;;9.80;99.90;;;;;;5115722;28;20383;-63
2021/04/28 20:50:48;;;;;;;7.88;4.28;;;9.80;99.90;;;;;;5089858;28;20043;-64
2021/04/28 20:53:22;;;;;;;8.07;3.95;;;9.80;99.90;;;;;;5113221;28;20039;-64
2021/04/28 20:56:20;;;;;;;12.18;5.03;;;9.80;99.90;;;;;;5112458;28;20039;-64
2021/04/28 20:58:54;;;;;;;13.00;5.35;;;9.80;99.90;;;;;;5097202;28;20040;-64
2021/04/28 21:01:26;;;;;;;12.75;5.97;;;9.80;99.90;;;;;;5117758;28;20043;-63
2021/04/28 21:08:18;;;;;;;7.97;4.63;;;9.80;99.90;;;;;;5120549;28;20034;-63
2021/04/28 21:10:50;;;;;;;15.48;6.03;;;9.70;99.90;;;;;;5108947;28;20044;-64